Ana Sayfa
METAR-TAF:

METAR-TAF

Havaalanları :

Newark-Heath Airport

Newark, Ohio, Amerika Birleşik Devletleri

Enlem: 40-01-22N, Boylam: 082-27-45W, yükseklik: 269 m

Güncel hava durumu gözlemi

Rapor saat 16:01 UTC de 33 dakika önce yapıldı.
Rüzgar batı/güneybatıdan 7 kt
Sıcaklık 24°C
Nem 83%
Basınç 1016 hPa
Görüş mesafesi: 16.1 km
1600 ft yükseklikte parçalı bulutlu
6000 ft yükseklikte çok bulutlu

METAR: KVTA 211601Z AUTO 25007KT 10SM SCT016 OVC060 24/21 A2999 RMK AO2 T02440206

Saat: 12:34 (16:34 UTC)


TAF: eksik

4.000'den fazla havaalanı için hava durumu gözlemleri ve tahminleri (METAR ve TAF raporları).

Kullanılabilir istasyonlar harita üzerinde sarı ve kırmızı noktalarla gösterilir.

İstasyonun adını görmek için fareyi noktanın üzerinde gezdirin.

Sonrasında hava gözlem ve tahminlerini görmek için tıklayın.

Haritayı değiştirmek için: yaklaştırmak için siyah artı işaretli yeşil düğmeye ve uzaklaştırmak için de eksi işaretli düğmeye hızla tıklayın; bitişik haritalar için yeşil okları kullanın.


METAR-TAF: